sensor_id;sensor_type;location;lat;lon;timestamp;P1;durP1;ratioP1;P2;durP2;ratioP2
56043;SDS011;41912;51.022;3.664;2022-10-26T00:02:13;9.88;;;2.45;;
56043;SDS011;41912;51.022;3.664;2022-10-26T00:04:39;8.38;;;2.85;;
56043;SDS011;41912;51.022;3.664;2022-10-26T00:07:04;10.13;;;3.47;;
56043;SDS011;41912;51.022;3.664;2022-10-26T00:09:30;15.00;;;4.10;;
56043;SDS011;41912;51.022;3.664;2022-10-26T00:11:56;7.10;;;2.65;;
56043;SDS011;41912;51.022;3.664;2022-10-26T00:14:21;10.02;;;3.08;;
56043;SDS011;41912;51.022;3.664;2022-10-26T00:16:47;9.50;;;2.88;;
56043;SDS011;41912;51.022;3.664;2022-10-26T00:19:13;6.80;;;2.70;;
56043;SDS011;41912;51.022;3.664;2022-10-26T00:21:38;7.38;;;2.88;;
56043;SDS011;41912;51.022;3.664;2022-10-26T00:24:04;9.02;;;2.72;;
56043;SDS011;41912;51.022;3.664;2022-10-26T00:26:29;7.25;;;2.33;;
56043;SDS011;41912;51.022;3.664;2022-10-26T00:28:55;7.95;;;2.70;;
56043;SDS011;41912;51.022;3.664;2022-10-26T00:31:22;7.63;;;2.58;;
56043;SDS011;41912;51.022;3.664;2022-10-26T00:33:51;6.93;;;2.67;;
56043;SDS011;41912;51.022;3.664;2022-10-26T00:36:17;9.18;;;2.88;;
56043;SDS011;41912;51.022;3.664;2022-10-26T00:38:48;9.82;;;3.15;;
56043;SDS011;41912;51.022;3.664;2022-10-26T00:41:18;10.10;;;3.13;;
56043;SDS011;41912;51.022;3.664;2022-10-26T00:43:45;7.97;;;3.17;;
56043;SDS011;41912;51.022;3.664;2022-10-26T00:46:12;12.02;;;3.22;;
56043;SDS011;41912;51.022;3.664;2022-10-26T00:48:43;9.20;;;3.72;;
56043;SDS011;41912;51.022;3.664;2022-10-26T00:51:24;7.90;;;3.22;;
56043;SDS011;41912;51.022;3.664;2022-10-26T00:54:00;11.68;;;3.92;;
56043;SDS011;41912;51.022;3.664;2022-10-26T00:56:28;11.70;;;3.25;;
56043;SDS011;41912;51.022;3.664;2022-10-26T00:58:55;11.43;;;3.25;;
56043;SDS011;41912;51.022;3.664;2022-10-26T01:01:26;15.32;;;3.05;;
56043;SDS011;41912;51.022;3.664;2022-10-26T01:03:53;10.70;;;3.10;;
56043;SDS011;41912;51.022;3.664;2022-10-26T01:06:20;11.82;;;3.95;;
56043;SDS011;41912;51.022;3.664;2022-10-26T01:08:46;8.50;;;3.50;;
56043;SDS011;41912;51.022;3.664;2022-10-26T01:11:12;8.10;;;3.05;;
56043;SDS011;41912;51.022;3.664;2022-10-26T01:13:38;12.25;;;3.30;;
56043;SDS011;41912;51.022;3.664;2022-10-26T01:26:52;10.65;;;3.10;;
56043;SDS011;41912;51.022;3.664;2022-10-26T01:29:48;6.88;;;2.40;;
56043;SDS011;41912;51.022;3.664;2022-10-26T01:32:37;8.52;;;2.60;;
56043;SDS011;41912;51.022;3.664;2022-10-26T01:35:29;9.65;;;2.90;;
56043;SDS011;41912;51.022;3.664;2022-10-26T01:37:57;9.68;;;2.60;;
56043;SDS011;41912;51.022;3.664;2022-10-26T01:40:35;14.10;;;2.65;;
56043;SDS011;41912;51.022;3.664;2022-10-26T01:43:07;7.55;;;3.10;;
56043;SDS011;41912;51.022;3.664;2022-10-26T01:45:36;12.70;;;2.92;;
56043;SDS011;41912;51.022;3.664;2022-10-26T01:48:05;13.88;;;3.50;;
56043;SDS011;41912;51.022;3.664;2022-10-26T01:50:33;8.30;;;2.80;;
56043;SDS011;41912;51.022;3.664;2022-10-26T01:53:00;8.48;;;2.67;;
56043;SDS011;41912;51.022;3.664;2022-10-26T01:55:38;5.28;;;2.33;;
56043;SDS011;41912;51.022;3.664;2022-10-26T01:58:35;10.63;;;2.72;;
56043;SDS011;41912;51.022;3.664;2022-10-26T02:07:19;6.85;;;2.10;;
56043;SDS011;41912;51.022;3.664;2022-10-26T02:10:41;8.02;;;2.33;;
56043;SDS011;41912;51.022;3.664;2022-10-26T02:18:49;8.60;;;2.38;;
56043;SDS011;41912;51.022;3.664;2022-10-26T02:21:17;9.27;;;1.90;;
56043;SDS011;41912;51.022;3.664;2022-10-26T02:23:54;5.68;;;2.40;;
56043;SDS011;41912;51.022;3.664;2022-10-26T02:26:23;13.52;;;2.55;;
56043;SDS011;41912;51.022;3.664;2022-10-26T02:28:50;7.65;;;2.38;;
56043;SDS011;41912;51.022;3.664;2022-10-26T02:31:19;5.78;;;2.30;;
56043;SDS011;41912;51.022;3.664;2022-10-26T02:33:47;8.48;;;2.97;;
56043;SDS011;41912;51.022;3.664;2022-10-26T02:36:24;8.13;;;2.50;;
56043;SDS011;41912;51.022;3.664;2022-10-26T02:38:53;7.28;;;2.35;;
56043;SDS011;41912;51.022;3.664;2022-10-26T02:41:21;10.35;;;2.95;;
56043;SDS011;41912;51.022;3.664;2022-10-26T02:43:56;11.20;;;2.53;;
56043;SDS011;41912;51.022;3.664;2022-10-26T02:46:28;17.38;;;3.75;;
56043;SDS011;41912;51.022;3.664;2022-10-26T02:48:54;6.43;;;2.78;;
56043;SDS011;41912;51.022;3.664;2022-10-26T02:51:33;3.50;;;1.70;;
56043;SDS011;41912;51.022;3.664;2022-10-26T02:56:53;10.18;;;2.22;;
56043;SDS011;41912;51.022;3.664;2022-10-26T02:59:26;7.20;;;1.73;;
56043;SDS011;41912;51.022;3.664;2022-10-26T03:01:54;6.75;;;1.92;;
56043;SDS011;41912;51.022;3.664;2022-10-26T03:04:26;8.45;;;1.92;;
56043;SDS011;41912;51.022;3.664;2022-10-26T03:06:53;6.55;;;1.92;;
56043;SDS011;41912;51.022;3.664;2022-10-26T03:09:19;8.98;;;1.92;;
56043;SDS011;41912;51.022;3.664;2022-10-26T03:11:45;6.25;;;1.60;;
56043;SDS011;41912;51.022;3.664;2022-10-26T03:14:11;7.25;;;2.03;;
56043;SDS011;41912;51.022;3.664;2022-10-26T03:16:36;9.93;;;1.92;;
56043;SDS011;41912;51.022;3.664;2022-10-26T03:19:02;5.35;;;1.80;;
56043;SDS011;41912;51.022;3.664;2022-10-26T03:21:27;5.15;;;1.70;;
56043;SDS011;41912;51.022;3.664;2022-10-26T03:23:53;8.18;;;1.73;;
56043;SDS011;41912;51.022;3.664;2022-10-26T03:26:19;7.63;;;1.25;;
56043;SDS011;41912;51.022;3.664;2022-10-26T03:28:44;6.93;;;1.63;;
56043;SDS011;41912;51.022;3.664;2022-10-26T03:31:10;8.63;;;1.98;;
56043;SDS011;41912;51.022;3.664;2022-10-26T03:33:35;4.80;;;1.67;;
56043;SDS011;41912;51.022;3.664;2022-10-26T03:36:01;4.53;;;1.60;;
56043;SDS011;41912;51.022;3.664;2022-10-26T03:38:27;5.65;;;1.48;;
56043;SDS011;41912;51.022;3.664;2022-10-26T03:40:52;5.53;;;1.42;;
56043;SDS011;41912;51.022;3.664;2022-10-26T03:43:18;4.78;;;1.73;;
56043;SDS011;41912;51.022;3.664;2022-10-26T03:45:43;6.65;;;1.42;;
56043;SDS011;41912;51.022;3.664;2022-10-26T03:48:09;3.70;;;1.10;;
56043;SDS011;41912;51.022;3.664;2022-10-26T03:50:35;5.07;;;1.40;;
56043;SDS011;41912;51.022;3.664;2022-10-26T03:53:00;10.05;;;1.48;;
56043;SDS011;41912;51.022;3.664;2022-10-26T03:55:26;4.63;;;1.38;;
56043;SDS011;41912;51.022;3.664;2022-10-26T03:57:52;6.78;;;1.48;;
56043;SDS011;41912;51.022;3.664;2022-10-26T04:00:17;7.35;;;1.73;;
56043;SDS011;41912;51.022;3.664;2022-10-26T04:02:44;5.18;;;1.60;;
56043;SDS011;41912;51.022;3.664;2022-10-26T04:05:15;3.92;;;1.50;;
56043;SDS011;41912;51.022;3.664;2022-10-26T04:07:41;1.83;;;1.35;;
56043;SDS011;41912;51.022;3.664;2022-10-26T04:10:07;11.40;;;1.63;;
56043;SDS011;41912;51.022;3.664;2022-10-26T04:12:35;7.18;;;1.48;;
56043;SDS011;41912;51.022;3.664;2022-10-26T04:15:02;6.68;;;2.00;;
56043;SDS011;41912;51.022;3.664;2022-10-26T04:17:30;6.50;;;1.50;;
56043;SDS011;41912;51.022;3.664;2022-10-26T04:19:56;8.80;;;1.55;;
56043;SDS011;41912;51.022;3.664;2022-10-26T04:22:21;6.03;;;1.38;;
56043;SDS011;41912;51.022;3.664;2022-10-26T04:24:47;6.93;;;1.42;;
56043;SDS011;41912;51.022;3.664;2022-10-26T04:27:14;5.47;;;1.20;;
56043;SDS011;41912;51.022;3.664;2022-10-26T04:29:39;4.28;;;1.52;;
56043;SDS011;41912;51.022;3.664;2022-10-26T04:32:05;2.72;;;1.23;;
56043;SDS011;41912;51.022;3.664;2022-10-26T04:34:31;6.35;;;1.27;;
56043;SDS011;41912;51.022;3.664;2022-10-26T04:36:57;6.47;;;1.42;;
56043;SDS011;41912;51.022;3.664;2022-10-26T04:39:22;4.35;;;1.30;;
56043;SDS011;41912;51.022;3.664;2022-10-26T04:41:48;5.95;;;1.50;;
56043;SDS011;41912;51.022;3.664;2022-10-26T04:44:14;5.57;;;1.42;;
56043;SDS011;41912;51.022;3.664;2022-10-26T04:46:39;3.83;;;1.70;;
56043;SDS011;41912;51.022;3.664;2022-10-26T04:49:05;5.22;;;1.33;;
56043;SDS011;41912;51.022;3.664;2022-10-26T04:51:30;4.97;;;1.30;;
56043;SDS011;41912;51.022;3.664;2022-10-26T04:53:56;3.65;;;1.33;;
56043;SDS011;41912;51.022;3.664;2022-10-26T04:56:22;3.80;;;1.48;;
56043;SDS011;41912;51.022;3.664;2022-10-26T04:58:48;5.20;;;1.30;;
56043;SDS011;41912;51.022;3.664;2022-10-26T05:01:13;3.88;;;1.60;;
56043;SDS011;41912;51.022;3.664;2022-10-26T05:03:39;6.35;;;1.33;;
56043;SDS011;41912;51.022;3.664;2022-10-26T05:06:05;5.00;;;1.55;;
56043;SDS011;41912;51.022;3.664;2022-10-26T05:08:30;10.32;;;1.73;;
56043;SDS011;41912;51.022;3.664;2022-10-26T05:10:56;5.47;;;1.38;;
56043;SDS011;41912;51.022;3.664;2022-10-26T05:13:22;2.95;;;1.33;;
56043;SDS011;41912;51.022;3.664;2022-10-26T05:15:47;5.05;;;2.03;;
56043;SDS011;41912;51.022;3.664;2022-10-26T05:18:16;6.25;;;1.70;;
56043;SDS011;41912;51.022;3.664;2022-10-26T05:20:42;7.72;;;1.45;;
56043;SDS011;41912;51.022;3.664;2022-10-26T05:23:09;7.90;;;1.38;;
56043;SDS011;41912;51.022;3.664;2022-10-26T05:25:36;6.47;;;1.52;;
56043;SDS011;41912;51.022;3.664;2022-10-26T05:28:06;4.95;;;1.30;;
56043;SDS011;41912;51.022;3.664;2022-10-26T05:30:35;8.88;;;1.40;;
56043;SDS011;41912;51.022;3.664;2022-10-26T05:33:01;6.13;;;1.63;;
56043;SDS011;41912;51.022;3.664;2022-10-26T05:35:27;7.20;;;1.65;;
56043;SDS011;41912;51.022;3.664;2022-10-26T05:37:53;9.80;;;1.65;;
56043;SDS011;41912;51.022;3.664;2022-10-26T05:40:19;3.22;;;1.60;;
56043;SDS011;41912;51.022;3.664;2022-10-26T05:42:45;6.32;;;1.35;;
56043;SDS011;41912;51.022;3.664;2022-10-26T05:45:11;3.88;;;1.50;;
56043;SDS011;41912;51.022;3.664;2022-10-26T05:47:37;4.72;;;1.42;;
56043;SDS011;41912;51.022;3.664;2022-10-26T05:50:07;6.53;;;1.70;;
56043;SDS011;41912;51.022;3.664;2022-10-26T05:52:40;3.90;;;1.67;;
56043;SDS011;41912;51.022;3.664;2022-10-26T05:55:07;4.90;;;1.50;;
56043;SDS011;41912;51.022;3.664;2022-10-26T05:57:34;5.65;;;1.80;;
56043;SDS011;41912;51.022;3.664;2022-10-26T06:00:00;4.78;;;1.50;;
56043;SDS011;41912;51.022;3.664;2022-10-26T06:05:08;4.15;;;1.60;;
56043;SDS011;41912;51.022;3.664;2022-10-26T06:07:35;5.72;;;1.60;;
56043;SDS011;41912;51.022;3.664;2022-10-26T06:10:02;7.63;;;1.50;;
56043;SDS011;41912;51.022;3.664;2022-10-26T06:12:28;5.35;;;1.42;;
56043;SDS011;41912;51.022;3.664;2022-10-26T06:14:54;10.73;;;1.88;;
56043;SDS011;41912;51.022;3.664;2022-10-26T06:17:38;6.47;;;1.52;;
56043;SDS011;41912;51.022;3.664;2022-10-26T06:31:36;4.15;;;1.85;;
56043;SDS011;41912;51.022;3.664;2022-10-26T06:34:02;4.18;;;1.65;;
56043;SDS011;41912;51.022;3.664;2022-10-26T06:36:28;6.40;;;2.15;;
56043;SDS011;41912;51.022;3.664;2022-10-26T06:39:02;11.40;;;2.40;;
56043;SDS011;41912;51.022;3.664;2022-10-26T06:41:32;6.32;;;1.92;;
56043;SDS011;41912;51.022;3.664;2022-10-26T06:43:59;5.80;;;2.00;;
56043;SDS011;41912;51.022;3.664;2022-10-26T06:46:42;11.35;;;2.08;;
56043;SDS011;41912;51.022;3.664;2022-10-26T06:57:13;8.98;;;2.20;;
56043;SDS011;41912;51.022;3.664;2022-10-26T07:02:14;6.93;;;1.83;;
56043;SDS011;41912;51.022;3.664;2022-10-26T07:04:40;5.05;;;1.50;;
56043;SDS011;41912;51.022;3.664;2022-10-26T07:07:10;9.98;;;2.10;;
56043;SDS011;41912;51.022;3.664;2022-10-26T07:09:38;7.35;;;2.10;;
56043;SDS011;41912;51.022;3.664;2022-10-26T07:12:04;18.92;;;2.83;;
56043;SDS011;41912;51.022;3.664;2022-10-26T07:14:30;4.32;;;1.88;;
56043;SDS011;41912;51.022;3.664;2022-10-26T07:16:55;9.25;;;2.08;;
56043;SDS011;41912;51.022;3.664;2022-10-26T07:19:21;7.38;;;1.80;;
56043;SDS011;41912;51.022;3.664;2022-10-26T07:21:47;7.63;;;2.25;;
56043;SDS011;41912;51.022;3.664;2022-10-26T07:24:13;8.60;;;2.20;;
56043;SDS011;41912;51.022;3.664;2022-10-26T07:26:38;5.85;;;1.92;;
56043;SDS011;41912;51.022;3.664;2022-10-26T07:29:04;10.82;;;2.25;;
56043;SDS011;41912;51.022;3.664;2022-10-26T07:31:29;9.40;;;2.40;;
56043;SDS011;41912;51.022;3.664;2022-10-26T07:33:55;11.02;;;2.17;;
56043;SDS011;41912;51.022;3.664;2022-10-26T07:36:21;12.23;;;2.35;;
56043;SDS011;41912;51.022;3.664;2022-10-26T07:38:46;9.35;;;2.40;;
56043;SDS011;41912;51.022;3.664;2022-10-26T07:41:15;9.25;;;2.00;;
56043;SDS011;41912;51.022;3.664;2022-10-26T07:43:41;8.68;;;2.17;;
56043;SDS011;41912;51.022;3.664;2022-10-26T07:46:09;7.78;;;2.42;;
56043;SDS011;41912;51.022;3.664;2022-10-26T07:48:34;10.80;;;2.30;;
56043;SDS011;41912;51.022;3.664;2022-10-26T07:51:00;9.55;;;2.10;;
56043;SDS011;41912;51.022;3.664;2022-10-26T07:53:26;12.43;;;2.40;;
56043;SDS011;41912;51.022;3.664;2022-10-26T07:55:55;8.02;;;2.20;;
56043;SDS011;41912;51.022;3.664;2022-10-26T07:58:22;6.93;;;2.10;;
56043;SDS011;41912;51.022;3.664;2022-10-26T08:00:50;15.82;;;2.45;;
56043;SDS011;41912;51.022;3.664;2022-10-26T08:03:17;12.32;;;2.35;;
56043;SDS011;41912;51.022;3.664;2022-10-26T08:05:46;15.77;;;2.40;;
56043;SDS011;41912;51.022;3.664;2022-10-26T08:08:15;6.63;;;2.40;;
56043;SDS011;41912;51.022;3.664;2022-10-26T08:10:42;8.68;;;2.20;;
56043;SDS011;41912;51.022;3.664;2022-10-26T08:13:09;11.02;;;2.60;;
56043;SDS011;41912;51.022;3.664;2022-10-26T08:15:34;9.02;;;2.50;;
56043;SDS011;41912;51.022;3.664;2022-10-26T08:18:00;6.88;;;2.10;;
56043;SDS011;41912;51.022;3.664;2022-10-26T08:20:26;7.32;;;2.15;;
56043;SDS011;41912;51.022;3.664;2022-10-26T08:22:54;7.28;;;2.38;;
56043;SDS011;41912;51.022;3.664;2022-10-26T08:25:20;8.43;;;2.00;;
56043;SDS011;41912;51.022;3.664;2022-10-26T08:27:46;10.32;;;2.45;;
56043;SDS011;41912;51.022;3.664;2022-10-26T08:30:12;6.75;;;2.10;;
56043;SDS011;41912;51.022;3.664;2022-10-26T08:32:37;10.55;;;2.47;;
56043;SDS011;41912;51.022;3.664;2022-10-26T08:35:03;5.95;;;1.88;;
56043;SDS011;41912;51.022;3.664;2022-10-26T08:37:29;6.30;;;1.88;;
56043;SDS011;41912;51.022;3.664;2022-10-26T08:39:54;10.15;;;2.10;;
56043;SDS011;41912;51.022;3.664;2022-10-26T08:42:22;12.63;;;2.47;;
56043;SDS011;41912;51.022;3.664;2022-10-26T08:44:53;7.35;;;2.05;;
56043;SDS011;41912;51.022;3.664;2022-10-26T08:47:25;10.98;;;2.50;;
56043;SDS011;41912;51.022;3.664;2022-10-26T08:55:28;12.27;;;2.47;;
56043;SDS011;41912;51.022;3.664;2022-10-26T08:58:04;10.45;;;2.53;;
56043;SDS011;41912;51.022;3.664;2022-10-26T09:00:34;10.27;;;2.20;;
56043;SDS011;41912;51.022;3.664;2022-10-26T09:03:05;11.40;;;2.22;;
56043;SDS011;41912;51.022;3.664;2022-10-26T09:06:43;9.35;;;2.28;;
56043;SDS011;41912;51.022;3.664;2022-10-26T09:08:52;7.22;;;2.20;;
56043;SDS011;41912;51.022;3.664;2022-10-26T09:11:29;7.63;;;2.25;;
56043;SDS011;41912;51.022;3.664;2022-10-26T09:14:18;8.75;;;2.55;;
56043;SDS011;41912;51.022;3.664;2022-10-26T09:25:04;5.97;;;2.10;;
56043;SDS011;41912;51.022;3.664;2022-10-26T09:27:43;8.52;;;2.50;;
56043;SDS011;41912;51.022;3.664;2022-10-26T09:30:17;4.45;;;1.90;;
56043;SDS011;41912;51.022;3.664;2022-10-26T09:32:51;6.03;;;2.00;;
56043;SDS011;41912;51.022;3.664;2022-10-26T09:35:25;7.03;;;2.00;;
56043;SDS011;41912;51.022;3.664;2022-10-26T09:37:56;6.15;;;2.90;;
56043;SDS011;41912;51.022;3.664;2022-10-26T09:40:30;5.50;;;1.73;;
56043;SDS011;41912;51.022;3.664;2022-10-26T09:45:38;8.50;;;2.38;;
56043;SDS011;41912;51.022;3.664;2022-10-26T09:51:14;7.18;;;2.03;;
56043;SDS011;41912;51.022;3.664;2022-10-26T09:53:40;9.85;;;2.20;;
56043;SDS011;41912;51.022;3.664;2022-10-26T09:56:07;9.40;;;2.20;;
56043;SDS011;41912;51.022;3.664;2022-10-26T09:58:36;9.90;;;2.00;;
56043;SDS011;41912;51.022;3.664;2022-10-26T10:01:06;12.05;;;1.88;;
56043;SDS011;41912;51.022;3.664;2022-10-26T10:04:07;9.98;;;2.13;;
56043;SDS011;41912;51.022;3.664;2022-10-26T10:09:27;12.07;;;2.58;;
56043;SDS011;41912;51.022;3.664;2022-10-26T10:11:58;7.20;;;1.80;;
56043;SDS011;41912;51.022;3.664;2022-10-26T10:16:57;7.28;;;1.85;;
56043;SDS011;41912;51.022;3.664;2022-10-26T10:19:24;13.20;;;2.35;;
56043;SDS011;41912;51.022;3.664;2022-10-26T10:21:53;6.47;;;1.83;;
56043;SDS011;41912;51.022;3.664;2022-10-26T10:26:57;8.95;;;1.95;;
56043;SDS011;41912;51.022;3.664;2022-10-26T10:29:40;9.75;;;2.15;;
56043;SDS011;41912;51.022;3.664;2022-10-26T10:32:13;8.18;;;1.55;;
56043;SDS011;41912;51.022;3.664;2022-10-26T10:34:40;6.88;;;1.88;;
56043;SDS011;41912;51.022;3.664;2022-10-26T10:37:12;5.82;;;1.70;;
56043;SDS011;41912;51.022;3.664;2022-10-26T10:42:38;5.95;;;1.70;;
56043;SDS011;41912;51.022;3.664;2022-10-26T10:45:06;5.35;;;1.85;;
56043;SDS011;41912;51.022;3.664;2022-10-26T10:47:41;6.07;;;1.77;;
56043;SDS011;41912;51.022;3.664;2022-10-26T10:50:38;11.55;;;1.60;;
56043;SDS011;41912;51.022;3.664;2022-10-26T10:53:15;11.05;;;1.40;;
56043;SDS011;41912;51.022;3.664;2022-10-26T11:01:43;6.57;;;1.30;;
56043;SDS011;41912;51.022;3.664;2022-10-26T11:04:23;6.72;;;1.67;;
56043;SDS011;41912;51.022;3.664;2022-10-26T11:07:03;5.70;;;1.65;;
56043;SDS011;41912;51.022;3.664;2022-10-26T11:09:32;4.20;;;1.48;;
56043;SDS011;41912;51.022;3.664;2022-10-26T11:12:08;10.18;;;1.60;;
56043;SDS011;41912;51.022;3.664;2022-10-26T11:14:38;6.20;;;1.55;;
56043;SDS011;41912;51.022;3.664;2022-10-26T11:17:26;7.55;;;1.70;;
56043;SDS011;41912;51.022;3.664;2022-10-26T11:19:57;7.57;;;1.50;;
56043;SDS011;41912;51.022;3.664;2022-10-26T11:22:28;3.90;;;1.48;;
56043;SDS011;41912;51.022;3.664;2022-10-26T11:24:59;11.73;;;1.88;;
56043;SDS011;41912;51.022;3.664;2022-10-26T11:27:33;7.82;;;1.60;;
56043;SDS011;41912;51.022;3.664;2022-10-26T11:30:14;8.65;;;1.63;;
56043;SDS011;41912;51.022;3.664;2022-10-26T11:32:49;8.38;;;1.70;;
56043;SDS011;41912;51.022;3.664;2022-10-26T11:40:54;4.18;;;1.30;;
56043;SDS011;41912;51.022;3.664;2022-10-26T11:43:29;3.88;;;1.38;;
56043;SDS011;41912;51.022;3.664;2022-10-26T11:46:05;8.52;;;1.50;;
56043;SDS011;41912;51.022;3.664;2022-10-26T11:48:39;6.47;;;1.50;;
56043;SDS011;41912;51.022;3.664;2022-10-26T11:51:41;12.25;;;2.17;;
56043;SDS011;41912;51.022;3.664;2022-10-26T11:54:12;6.90;;;1.60;;
56043;SDS011;41912;51.022;3.664;2022-10-26T11:56:47;5.18;;;1.58;;
56043;SDS011;41912;51.022;3.664;2022-10-26T12:01:45;7.72;;;1.33;;
56043;SDS011;41912;51.022;3.664;2022-10-26T12:04:13;8.65;;;1.58;;
56043;SDS011;41912;51.022;3.664;2022-10-26T12:06:42;5.40;;;1.45;;
56043;SDS011;41912;51.022;3.664;2022-10-26T12:09:14;9.43;;;2.13;;
56043;SDS011;41912;51.022;3.664;2022-10-26T12:11:45;6.57;;;1.35;;
56043;SDS011;41912;51.022;3.664;2022-10-26T12:14:25;8.15;;;1.88;;
56043;SDS011;41912;51.022;3.664;2022-10-26T12:17:13;9.18;;;2.10;;
56043;SDS011;41912;51.022;3.664;2022-10-26T12:19:57;6.75;;;1.70;;
56043;SDS011;41912;51.022;3.664;2022-10-26T12:22:43;5.72;;;1.35;;
56043;SDS011;41912;51.022;3.664;2022-10-26T12:30:21;3.72;;;1.40;;
56043;SDS011;41912;51.022;3.664;2022-10-26T12:32:58;6.05;;;1.30;;
56043;SDS011;41912;51.022;3.664;2022-10-26T12:35:32;6.15;;;1.58;;
56043;SDS011;41912;51.022;3.664;2022-10-26T12:56:47;4.88;;;1.17;;
56043;SDS011;41912;51.022;3.664;2022-10-26T13:12:24;4.97;;;1.17;;
56043;SDS011;41912;51.022;3.664;2022-10-26T13:14:56;8.48;;;1.50;;
56043;SDS011;41912;51.022;3.664;2022-10-26T13:17:27;4.18;;;1.35;;
56043;SDS011;41912;51.022;3.664;2022-10-26T13:20:02;4.75;;;1.23;;
56043;SDS011;41912;51.022;3.664;2022-10-26T13:22:30;4.60;;;1.42;;
56043;SDS011;41912;51.022;3.664;2022-10-26T13:24:57;8.02;;;1.70;;
56043;SDS011;41912;51.022;3.664;2022-10-26T13:32:29;7.20;;;1.23;;
56043;SDS011;41912;51.022;3.664;2022-10-26T13:34:57;6.28;;;1.40;;
56043;SDS011;41912;51.022;3.664;2022-10-26T13:37:26;6.07;;;1.45;;
56043;SDS011;41912;51.022;3.664;2022-10-26T13:39:55;11.10;;;1.70;;
56043;SDS011;41912;51.022;3.664;2022-10-26T13:42:27;3.53;;;1.15;;
56043;SDS011;41912;51.022;3.664;2022-10-26T13:45:07;7.03;;;1.42;;
56043;SDS011;41912;51.022;3.664;2022-10-26T13:47:48;4.60;;;1.50;;
56043;SDS011;41912;51.022;3.664;2022-10-26T13:50:23;7.43;;;1.20;;
56043;SDS011;41912;51.022;3.664;2022-10-26T13:53:05;9.38;;;1.55;;
56043;SDS011;41912;51.022;3.664;2022-10-26T13:55:35;7.03;;;1.42;;
56043;SDS011;41912;51.022;3.664;2022-10-26T14:00:35;7.07;;;1.20;;
56043;SDS011;41912;51.022;3.664;2022-10-26T14:03:11;7.72;;;1.23;;
56043;SDS011;41912;51.022;3.664;2022-10-26T14:05:40;3.50;;;1.15;;
56043;SDS011;41912;51.022;3.664;2022-10-26T14:08:11;6.70;;;1.13;;
56043;SDS011;41912;51.022;3.664;2022-10-26T14:10:40;8.40;;;1.60;;
56043;SDS011;41912;51.022;3.664;2022-10-26T14:13:12;4.13;;;1.15;;
56043;SDS011;41912;51.022;3.664;2022-10-26T14:15:43;6.00;;;1.08;;
56043;SDS011;41912;51.022;3.664;2022-10-26T14:18:11;7.88;;;1.40;;
56043;SDS011;41912;51.022;3.664;2022-10-26T14:20:54;6.63;;;1.30;;
56043;SDS011;41912;51.022;3.664;2022-10-26T14:23:50;5.65;;;1.02;;
56043;SDS011;41912;51.022;3.664;2022-10-26T14:26:29;3.78;;;1.00;;
56043;SDS011;41912;51.022;3.664;2022-10-26T14:29:02;4.32;;;1.00;;
56043;SDS011;41912;51.022;3.664;2022-10-26T14:31:31;5.63;;;1.33;;
56043;SDS011;41912;51.022;3.664;2022-10-26T14:33:58;6.50;;;1.30;;
56043;SDS011;41912;51.022;3.664;2022-10-26T14:36:29;5.00;;;1.13;;
56043;SDS011;41912;51.022;3.664;2022-10-26T14:39:04;6.10;;;1.10;;
56043;SDS011;41912;51.022;3.664;2022-10-26T14:41:39;12.40;;;1.33;;
56043;SDS011;41912;51.022;3.664;2022-10-26T14:44:05;8.20;;;1.33;;
56043;SDS011;41912;51.022;3.664;2022-10-26T14:46:43;8.88;;;1.55;;
56043;SDS011;41912;51.022;3.664;2022-10-26T14:49:15;10.15;;;1.50;;
56043;SDS011;41912;51.022;3.664;2022-10-26T14:51:55;5.60;;;1.05;;
56043;SDS011;41912;51.022;3.664;2022-10-26T14:54:23;4.53;;;0.73;;
56043;SDS011;41912;51.022;3.664;2022-10-26T14:56:50;10.55;;;1.48;;
56043;SDS011;41912;51.022;3.664;2022-10-26T15:07:00;7.72;;;1.20;;
56043;SDS011;41912;51.022;3.664;2022-10-26T15:12:06;9.35;;;1.70;;
56043;SDS011;41912;51.022;3.664;2022-10-26T15:14:43;5.82;;;1.40;;
56043;SDS011;41912;51.022;3.664;2022-10-26T15:17:12;11.77;;;1.73;;
56043;SDS011;41912;51.022;3.664;2022-10-26T15:19:45;4.45;;;1.20;;
56043;SDS011;41912;51.022;3.664;2022-10-26T15:22:18;5.95;;;1.10;;
56043;SDS011;41912;51.022;3.664;2022-10-26T15:24:50;8.25;;;1.20;;
56043;SDS011;41912;51.022;3.664;2022-10-26T15:27:20;3.72;;;1.00;;
56043;SDS011;41912;51.022;3.664;2022-10-26T15:29:51;7.60;;;1.00;;
56043;SDS011;41912;51.022;3.664;2022-10-26T15:32:32;7.90;;;1.35;;
56043;SDS011;41912;51.022;3.664;2022-10-26T15:37:47;11.32;;;1.60;;
56043;SDS011;41912;51.022;3.664;2022-10-26T15:40:14;5.00;;;1.45;;
56043;SDS011;41912;51.022;3.664;2022-10-26T15:42:41;7.18;;;1.15;;
56043;SDS011;41912;51.022;3.664;2022-10-26T15:50:46;5.60;;;1.00;;
56043;SDS011;41912;51.022;3.664;2022-10-26T15:53:15;6.07;;;1.38;;
56043;SDS011;41912;51.022;3.664;2022-10-26T15:55:46;5.25;;;1.55;;
56043;SDS011;41912;51.022;3.664;2022-10-26T15:58:12;9.88;;;1.77;;
56043;SDS011;41912;51.022;3.664;2022-10-26T16:00:39;10.35;;;1.27;;
56043;SDS011;41912;51.022;3.664;2022-10-26T16:03:04;7.97;;;1.25;;
56043;SDS011;41912;51.022;3.664;2022-10-26T16:05:30;12.23;;;1.48;;
56043;SDS011;41912;51.022;3.664;2022-10-26T16:07:55;3.80;;;1.10;;
56043;SDS011;41912;51.022;3.664;2022-10-26T16:10:23;6.32;;;1.55;;
56043;SDS011;41912;51.022;3.664;2022-10-26T16:12:49;8.52;;;1.30;;
56043;SDS011;41912;51.022;3.664;2022-10-26T16:15:16;7.53;;;1.38;;
56043;SDS011;41912;51.022;3.664;2022-10-26T16:17:44;6.53;;;1.52;;
56043;SDS011;41912;51.022;3.664;2022-10-26T16:20:12;9.48;;;1.52;;
56043;SDS011;41912;51.022;3.664;2022-10-26T16:22:45;10.07;;;1.80;;
56043;SDS011;41912;51.022;3.664;2022-10-26T16:25:12;7.25;;;1.50;;
56043;SDS011;41912;51.022;3.664;2022-10-26T16:27:40;9.13;;;2.10;;
56043;SDS011;41912;51.022;3.664;2022-10-26T16:30:05;10.85;;;1.88;;
56043;SDS011;41912;51.022;3.664;2022-10-26T16:32:32;9.25;;;1.88;;
56043;SDS011;41912;51.022;3.664;2022-10-26T16:34:57;12.15;;;1.45;;
56043;SDS011;41912;51.022;3.664;2022-10-26T16:37:23;4.32;;;1.38;;
56043;SDS011;41912;51.022;3.664;2022-10-26T16:39:48;6.65;;;1.20;;
56043;SDS011;41912;51.022;3.664;2022-10-26T16:42:14;12.88;;;2.42;;
56043;SDS011;41912;51.022;3.664;2022-10-26T16:44:39;39.70;;;3.13;;
56043;SDS011;41912;51.022;3.664;2022-10-26T16:47:05;10.35;;;1.90;;
56043;SDS011;41912;51.022;3.664;2022-10-26T16:49:30;16.42;;;2.17;;
56043;SDS011;41912;51.022;3.664;2022-10-26T16:51:56;15.38;;;1.65;;
56043;SDS011;41912;51.022;3.664;2022-10-26T16:54:22;21.17;;;1.70;;
56043;SDS011;41912;51.022;3.664;2022-10-26T16:56:47;14.57;;;1.50;;
56043;SDS011;41912;51.022;3.664;2022-10-26T16:59:13;4.35;;;1.63;;
56043;SDS011;41912;51.022;3.664;2022-10-26T17:01:39;32.97;;;3.00;;
56043;SDS011;41912;51.022;3.664;2022-10-26T17:04:04;15.43;;;1.63;;
56043;SDS011;41912;51.022;3.664;2022-10-26T17:06:30;10.02;;;1.55;;
56043;SDS011;41912;51.022;3.664;2022-10-26T17:08:55;11.68;;;1.60;;
56043;SDS011;41912;51.022;3.664;2022-10-26T17:11:21;9.95;;;1.60;;
56043;SDS011;41912;51.022;3.664;2022-10-26T17:13:47;9.50;;;1.65;;
56043;SDS011;41912;51.022;3.664;2022-10-26T17:16:17;5.30;;;1.98;;
56043;SDS011;41912;51.022;3.664;2022-10-26T17:18:45;7.13;;;1.90;;
56043;SDS011;41912;51.022;3.664;2022-10-26T17:21:14;6.93;;;1.77;;
56043;SDS011;41912;51.022;3.664;2022-10-26T17:23:41;12.30;;;2.08;;
56043;SDS011;41912;51.022;3.664;2022-10-26T17:26:08;8.80;;;1.70;;
56043;SDS011;41912;51.022;3.664;2022-10-26T17:28:35;7.80;;;1.85;;
56043;SDS011;41912;51.022;3.664;2022-10-26T17:31:05;16.30;;;2.17;;
56043;SDS011;41912;51.022;3.664;2022-10-26T17:33:36;10.27;;;1.98;;
56043;SDS011;41912;51.022;3.664;2022-10-26T17:36:03;6.47;;;1.23;;
56043;SDS011;41912;51.022;3.664;2022-10-26T17:38:34;10.00;;;2.00;;
56043;SDS011;41912;51.022;3.664;2022-10-26T17:41:03;8.40;;;1.95;;